Time;durP1;ratioP1;P1;durP2;ratioP2;P2;SDS_P1;SDS_P2;PMS_P1;PMS_P2;Temp;Humidity;BMP_temperature;BMP_pressure;BME280_temperature;BME280_humidity;BME280_pressure;Samples;Min_cycle;Max_cycle;Signal;HPM_P1;HPM_P2
2022/06/04 00:00:28;;;;;;;10.38;6.20;;;11.40;96.60;;;;;;5070259;28;20040;-62
2022/06/04 00:02:54;;;;;;;13.52;7.35;;;11.40;96.90;;;;;;5068392;28;20044;-62
2022/06/04 00:05:26;;;;;;;12.93;6.18;;;11.40;96.50;;;;;;5074016;28;20138;-62
2022/06/04 00:07:52;;;;;;;13.30;7.70;;;11.40;96.90;;;;;;5066989;28;20045;-62
2022/06/04 00:16:01;;;;;;;11.32;6.57;;;11.40;96.80;;;;;;5069899;28;20052;-62
2022/06/04 00:18:27;;;;;;;11.55;6.55;;;11.20;97.00;;;;;;5070347;28;20048;-62
2022/06/04 00:20:54;;;;;;;15.13;7.28;;;11.20;97.00;;;;;;5050330;28;20086;-62
2022/06/04 00:23:21;;;;;;;15.00;7.22;;;11.20;97.00;;;;;;5066568;28;20048;-63
2022/06/04 00:25:50;;;;;;;14.43;6.95;;;11.20;97.00;;;;;;5067443;28;20083;-62
2022/06/04 00:28:18;;;;;;;12.13;6.90;;;11.20;97.30;;;;;;5082429;28;20043;-62
2022/06/04 00:30:44;;;;;;;11.88;7.80;;;11.20;97.10;;;;;;5074343;28;20063;-62
2022/06/04 00:33:10;;;;;;;11.80;6.95;;;11.20;97.20;;;;;;5069486;28;20051;-62
2022/06/04 00:35:36;;;;;;;13.23;7.47;;;11.10;97.20;;;;;;5068504;28;20115;-62
2022/06/04 00:38:06;;;;;;;18.10;8.88;;;11.10;97.40;;;;;;5063151;28;20070;-62
2022/06/04 00:40:44;;;;;;;15.53;7.77;;;11.00;97.70;;;;;;5066388;28;20095;-62
2022/06/04 00:43:10;;;;;;;15.30;8.48;;;11.10;98.30;;;;;;5068834;28;20060;-62
2022/06/04 00:45:35;;;;;;;14.25;7.82;;;11.10;97.50;;;;;;5074754;28;20044;-63
2022/06/04 00:48:04;;;;;;;12.07;7.05;;;11.00;97.60;;;;;;5068899;28;20047;-62
2022/06/04 00:50:36;;;;;;;14.57;8.10;;;11.00;97.90;;;;;;5065829;28;20036;-62
2022/06/04 00:53:04;;;;;;;16.13;8.52;;;11.00;97.90;;;;;;5067284;28;20036;-62
2022/06/04 00:56:03;;;;;;;15.77;8.27;;;11.00;97.90;;;;;;5067784;28;20115;-62
2022/06/04 00:58:55;;;;;;;15.15;8.43;;;11.00;98.10;;;;;;5068730;28;20163;-62
2022/06/04 01:01:25;;;;;;;12.68;8.18;;;10.90;98.40;;;;;;5078410;28;20052;-62
2022/06/04 01:07:31;;;;;;;11.98;8.55;;;10.90;98.60;;;;;;5067670;28;20044;-62
2022/06/04 01:10:06;;;;;;;16.13;9.07;;;10.80;98.50;;;;;;5066540;28;20342;-62
2022/06/04 01:12:58;;;;;;;16.63;8.68;;;10.80;98.20;;;;;;5068707;28;20036;-62
2022/06/04 01:15:38;;;;;;;15.15;8.27;;;10.80;98.60;;;;;;5068768;28;20041;-62
2022/06/04 01:18:26;;;;;;;18.50;9.15;;;10.80;98.40;;;;;;5068106;28;20815;-61
2022/06/04 01:21:12;;;;;;;13.07;8.45;;;10.80;99.10;;;;;;5065519;28;20093;-62
2022/06/04 01:23:51;;;;;;;14.15;8.75;;;10.80;98.90;;;;;;5071734;28;20032;-62
2022/06/04 01:26:42;;;;;;;14.38;8.63;;;10.80;99.10;;;;;;5079623;28;20044;-62
2022/06/04 01:29:14;;;;;;;17.27;9.23;;;10.80;99.40;;;;;;5034482;28;20053;-62
2022/06/04 01:31:54;;;;;;;15.65;9.07;;;10.80;98.90;;;;;;5070733;28;20032;-62
2022/06/04 01:34:22;;;;;;;;;;;10.80;99.30;;;;;;5068664;28;20052;-62
2022/06/04 01:37:00;;;;;;;14.98;9.10;;;10.80;99.90;;;;;;5067666;28;19924;-62
2022/06/04 01:41:03;;;;;;;14.80;8.95;;;10.70;99.60;;;;;;5066936;28;20036;-62
2022/06/04 01:42:18;;;;;;;14.05;9.18;;;10.70;99.10;;;;;;5069727;28;20045;-62
2022/06/04 01:44:45;;;;;;;20.48;9.13;;;10.70;99.10;;;;;;5068272;28;20068;-62
2022/06/04 01:47:12;;;;;;;14.35;8.70;;;10.70;99.10;;;;;;5064767;28;21220;-62
2022/06/04 01:49:47;;;;;;;18.25;9.23;;;10.60;99.30;;;;;;5069741;28;20113;-62
2022/06/04 01:52:18;;;;;;;15.38;9.65;;;10.60;99.70;;;;;;5067537;28;20521;-62
2022/06/04 01:54:58;;;;;;;15.55;8.90;;;10.60;99.60;;;;;;5078475;28;20435;-62
2022/06/04 01:57:32;;;;;;;15.98;9.27;;;10.50;99.80;;;;;;5073621;28;20404;-62
2022/06/04 02:00:15;;;;;;;19.20;9.63;;;10.50;99.90;;;;;;5069404;28;20126;-62
2022/06/04 02:02:49;;;;;;;20.92;9.68;;;10.50;99.90;;;;;;5068129;28;20044;-62
2022/06/04 02:05:21;;;;;;;15.15;9.45;;;10.40;99.90;;;;;;5069589;28;20094;-62
2022/06/04 02:07:50;;;;;;;18.63;8.93;;;10.40;99.90;;;;;;5065455;28;20036;-62
2022/06/04 02:10:23;;;;;;;16.52;8.63;;;10.30;99.90;;;;;;5068584;28;20514;-62
2022/06/04 02:12:52;;;;;;;18.52;9.20;;;10.30;99.90;;;;;;5066813;28;20032;-62
2022/06/04 02:15:21;;;;;;;14.73;10.30;;;10.30;99.90;;;;;;5071956;28;20037;-62
2022/06/04 02:17:53;;;;;;;17.33;9.85;;;10.30;99.90;;;;;;5084838;28;20036;-62
2022/06/04 02:20:19;;;;;;;21.98;9.70;;;10.30;99.90;;;;;;5069349;28;20040;-62
2022/06/04 02:22:45;;;;;;;20.60;9.32;;;10.30;99.90;;;;;;5070065;28;20036;-62
2022/06/04 02:25:13;;;;;;;20.23;10.00;;;10.20;99.90;;;;;;5074643;28;20039;-62
2022/06/04 02:27:39;;;;;;;17.88;10.65;;;10.10;99.90;;;;;;5070800;28;20036;-62
2022/06/04 02:30:07;;;;;;;20.25;10.18;;;10.10;99.90;;;;;;5072286;28;20041;-62
2022/06/04 02:33:14;;;;;;;25.85;10.55;;;10.10;99.90;;;;;;5072815;28;20119;-62
2022/06/04 02:35:52;;;;;;;19.67;9.32;;;10.10;99.90;;;;;;5061306;28;20086;-62
2022/06/04 02:38:36;;;;;;;17.67;10.73;;;10.00;99.90;;;;;;5083428;28;20040;-62
2022/06/04 02:41:18;;;;;;;23.10;10.23;;;10.00;99.90;;;;;;5070343;28;20071;-62
2022/06/04 02:43:52;;;;;;;15.85;9.95;;;10.00;99.90;;;;;;5075052;28;20048;-62
2022/06/04 02:46:29;;;;;;;19.38;10.65;;;9.90;99.90;;;;;;5083407;28;20124;-62
2022/06/04 02:49:11;;;;;;;17.80;9.52;;;9.90;99.90;;;;;;5075926;28;20047;-62
2022/06/04 02:51:41;;;;;;;17.83;11.07;;;9.90;99.90;;;;;;5069496;28;20459;-62
2022/06/04 02:54:15;;;;;;;18.63;9.98;;;9.90;99.90;;;;;;5067750;28;20162;-62
2022/06/04 02:56:42;;;;;;;16.95;9.52;;;9.90;99.90;;;;;;5078565;28;20036;-62
2022/06/04 02:59:12;;;;;;;17.83;10.15;;;9.80;99.90;;;;;;5077521;28;20078;-62
2022/06/04 03:01:41;;;;;;;25.30;10.13;;;9.80;99.90;;;;;;5071594;28;20067;-62
2022/06/04 03:04:08;;;;;;;17.45;10.55;;;9.80;99.90;;;;;;5069154;28;20041;-62
2022/06/04 03:06:34;;;;;;;18.33;9.85;;;9.80;99.90;;;;;;5081371;28;20063;-62
2022/06/04 03:09:06;;;;;;;20.30;9.90;;;9.70;99.90;;;;;;5075383;28;20488;-62
2022/06/04 03:11:38;;;;;;;18.83;10.15;;;9.70;99.90;;;;;;5074666;28;20064;-62
2022/06/04 03:14:04;;;;;;;19.55;9.80;;;9.70;99.90;;;;;;5072416;28;20032;-62
2022/06/04 03:16:38;;;;;;;18.50;9.50;;;9.70;99.90;;;;;;5072314;28;20044;-62
2022/06/04 03:19:07;;;;;;;20.67;9.73;;;9.70;99.90;;;;;;5074275;28;20162;-62
2022/06/04 03:21:37;;;;;;;21.73;10.32;;;9.70;99.90;;;;;;5070799;28;20037;-62
2022/06/04 03:24:03;;;;;;;18.20;9.43;;;9.70;99.90;;;;;;5074070;28;20051;-62
2022/06/04 03:26:29;;;;;;;20.33;8.95;;;9.70;99.90;;;;;;5071618;28;21680;-62
2022/06/04 03:28:55;;;;;;;22.15;9.77;;;9.70;99.90;;;;;;5080612;28;20043;-62
2022/06/04 03:31:20;;;;;;;16.45;9.40;;;9.80;99.90;;;;;;5069080;28;20479;-62
2022/06/04 03:33:46;;;;;;;17.83;8.48;;;9.80;99.90;;;;;;5069765;28;20044;-62
2022/06/04 03:36:12;;;;;;;15.38;8.07;;;9.80;99.90;;;;;;5066791;28;20036;-62
2022/06/04 03:38:38;;;;;;;18.73;9.38;;;9.80;99.90;;;;;;5073170;28;20059;-62
2022/06/04 03:41:03;;;;;;;15.82;8.57;;;9.80;99.90;;;;;;5076432;28;20464;-62
2022/06/04 03:43:29;;;;;;;18.70;9.18;;;9.80;99.90;;;;;;5070967;28;20080;-63
2022/06/04 03:45:55;;;;;;;16.50;8.00;;;9.80;99.90;;;;;;5070581;28;20044;-62
2022/06/04 03:48:22;;;;;;;17.92;8.60;;;9.80;99.90;;;;;;5082925;28;20884;-62
2022/06/04 03:50:48;;;;;;;12.88;8.38;;;9.90;99.90;;;;;;5067669;28;20038;-62
2022/06/04 03:53:14;;;;;;;15.63;8.80;;;9.90;99.90;;;;;;5068631;28;20472;-62
2022/06/04 03:55:39;;;;;;;18.73;8.55;;;9.90;99.90;;;;;;5067032;28;20041;-62
2022/06/04 03:58:05;;;;;;;19.40;8.57;;;9.90;99.90;;;;;;5069233;28;20106;-62
2022/06/04 04:00:34;;;;;;;17.40;8.05;;;9.90;99.90;;;;;;5067870;28;20552;-62
2022/06/04 04:03:05;;;;;;;16.50;7.88;;;9.90;99.90;;;;;;5065970;28;20048;-62
2022/06/04 04:05:37;;;;;;;16.67;8.13;;;9.90;99.90;;;;;;5068009;28;20044;-62
2022/06/04 04:08:06;;;;;;;15.43;7.70;;;10.00;99.90;;;;;;5067887;28;20044;-62
2022/06/04 04:10:32;;;;;;;15.77;8.18;;;10.00;99.90;;;;;;5070075;28;20036;-61
2022/06/04 04:12:59;;;;;;;12.13;7.05;;;10.10;99.90;;;;;;5068514;28;20032;-62
2022/06/04 04:15:26;;;;;;;11.90;7.00;;;10.20;99.90;;;;;;5065271;28;20111;-62
2022/06/04 04:17:53;;;;;;;10.60;7.30;;;10.20;99.90;;;;;;5070128;28;20817;-62
2022/06/04 04:20:24;;;;;;;12.13;7.70;;;10.20;99.90;;;;;;5063897;28;20033;-62
2022/06/04 04:22:51;;;;;;;12.63;7.05;;;10.30;99.90;;;;;;5071240;28;20036;-62
2022/06/04 04:25:19;;;;;;;15.48;7.63;;;10.40;99.90;;;;;;5070722;28;20028;-62
2022/06/04 04:27:45;;;;;;;12.85;7.57;;;10.40;99.90;;;;;;5071163;28;20115;-62
2022/06/04 04:30:14;;;;;;;10.90;6.80;;;10.50;99.90;;;;;;5067049;28;20051;-62
2022/06/04 04:32:40;;;;;;;11.02;6.93;;;10.50;99.90;;;;;;5063219;28;20052;-63
2022/06/04 04:35:09;;;;;;;12.32;6.95;;;10.60;99.90;;;;;;5066655;28;20032;-62
2022/06/04 04:37:34;;;;;;;9.93;6.45;;;10.70;99.90;;;;;;5065762;28;20032;-62
2022/06/04 04:40:00;;;;;;;12.82;7.63;;;10.80;99.90;;;;;;5063550;28;20037;-62
2022/06/04 04:42:25;;;;;;;14.15;7.07;;;10.80;99.90;;;;;;5069811;28;20396;-62
2022/06/04 04:44:51;;;;;;;13.38;6.85;;;10.90;99.90;;;;;;5070041;28;20060;-62
2022/06/04 04:47:17;;;;;;;11.73;6.78;;;11.00;99.90;;;;;;5068711;28;20055;-62
2022/06/04 04:49:43;;;;;;;9.48;5.78;;;11.10;99.90;;;;;;5064898;28;20105;-62
2022/06/04 04:52:09;;;;;;;10.13;5.78;;;11.20;99.90;;;;;;5073118;28;20532;-62
2022/06/04 04:54:34;;;;;;;11.23;6.35;;;11.30;99.90;;;;;;5070208;28;20057;-62
2022/06/04 04:57:00;;;;;;;12.13;7.05;;;11.40;99.90;;;;;;5069019;28;20067;-62
2022/06/04 04:59:26;;;;;;;10.02;6.05;;;11.50;99.90;;;;;;5066922;28;20044;-62
2022/06/04 05:01:52;;;;;;;9.88;6.28;;;11.60;99.90;;;;;;5067214;28;20037;-62
2022/06/04 05:04:18;;;;;;;9.68;5.60;;;11.70;99.90;;;;;;5067602;28;20066;-62
2022/06/04 05:06:44;;;;;;;10.93;5.78;;;11.90;99.90;;;;;;5063642;28;20040;-62
2022/06/04 05:09:10;;;;;;;10.13;5.60;;;11.90;99.90;;;;;;5077984;28;20079;-62
2022/06/04 05:11:36;;;;;;;10.70;6.35;;;12.00;99.90;;;;;;5063897;28;20487;-62
2022/06/04 05:14:03;;;;;;;11.75;6.05;;;12.10;99.90;;;;;;5064110;28;20048;-62
2022/06/04 05:16:31;;;;;;;7.72;5.70;;;12.30;99.90;;;;;;5068676;28;20082;-62
2022/06/04 05:18:57;;;;;;;8.45;6.20;;;12.40;99.90;;;;;;5068453;28;20055;-62
2022/06/04 05:21:34;;;;;;;7.88;5.35;;;12.60;99.90;;;;;;5066980;28;20044;-62
2022/06/04 05:24:00;;;;;;;11.02;5.60;;;12.70;99.90;;;;;;5068802;28;20048;-62
2022/06/04 05:26:26;;;;;;;8.55;4.68;;;12.90;99.90;;;;;;5073769;28;20047;-62
2022/06/04 05:28:53;;;;;;;6.30;4.60;;;13.10;99.90;;;;;;5075741;28;20399;-62
2022/06/04 05:31:19;;;;;;;10.65;4.60;;;13.20;99.90;;;;;;5072005;28;20036;-62
2022/06/04 05:33:45;;;;;;;7.53;3.63;;;13.40;99.40;;;;;;5068578;28;20406;-61
2022/06/04 05:36:12;;;;;;;7.80;4.60;;;13.40;98.70;;;;;;5069140;28;20116;-62
2022/06/04 05:38:38;;;;;;;7.78;4.22;;;13.60;98.70;;;;;;5071444;28;20051;-62
2022/06/04 05:41:07;;;;;;;5.90;4.60;;;13.70;98.20;;;;;;5069238;28;20044;-62
2022/06/04 05:43:33;;;;;;;6.30;4.00;;;13.70;97.40;;;;;;5067001;28;20080;-61
2022/06/04 05:46:01;;;;;;;7.00;4.85;;;13.70;96.80;;;;;;5072476;28;20068;-62
2022/06/04 05:48:26;;;;;;;6.13;4.07;;;13.70;96.40;;;;;;5068824;28;20052;-62
2022/06/04 05:50:53;;;;;;;7.05;4.75;;;13.70;96.00;;;;;;5083804;28;20058;-62
2022/06/04 05:53:19;;;;;;;5.88;4.03;;;13.80;95.60;;;;;;5074434;28;20028;-62
2022/06/04 05:55:45;;;;;;;6.40;4.00;;;14.00;95.10;;;;;;5069243;28;20040;-62
2022/06/04 05:58:11;;;;;;;6.35;4.13;;;14.20;94.60;;;;;;5068003;28;20094;-62
2022/06/04 06:00:36;;;;;;;8.60;4.20;;;14.30;94.20;;;;;;5074579;28;20039;-62
2022/06/04 06:03:02;;;;;;;9.25;4.38;;;14.50;94.00;;;;;;5075225;28;20447;-62
2022/06/04 06:05:28;;;;;;;6.15;3.90;;;14.60;93.50;;;;;;5070107;28;20389;-62
2022/06/04 06:07:53;;;;;;;7.40;3.95;;;14.90;93.10;;;;;;5069210;28;20043;-62
2022/06/04 06:10:20;;;;;;;5.22;3.90;;;14.90;92.40;;;;;;5066839;28;20068;-62
2022/06/04 06:12:46;;;;;;;7.93;4.25;;;15.00;92.00;;;;;;5075134;28;20427;-62
2022/06/04 06:15:12;;;;;;;5.88;4.10;;;15.10;91.50;;;;;;5066318;28;20044;-62
2022/06/04 06:17:40;;;;;;;5.18;3.72;;;15.30;90.00;;;;;;5074554;28;20388;-62
2022/06/04 06:20:06;;;;;;;9.35;4.15;;;15.40;90.50;;;;;;5072749;28;20040;-62
2022/06/04 06:22:32;;;;;;;8.63;4.28;;;15.30;90.00;;;;;;5072538;28;20388;-62
2022/06/04 06:24:58;;;;;;;7.38;4.30;;;15.30;89.60;;;;;;5068833;28;20038;-62
2022/06/04 06:27:27;;;;;;;8.32;4.25;;;15.30;88.90;;;;;;5072384;28;20504;-62
2022/06/04 06:29:53;;;;;;;5.25;3.70;;;15.30;88.80;;;;;;5067234;28;20090;-62
2022/06/04 06:32:19;;;;;;;6.60;4.00;;;15.40;88.30;;;;;;5065047;28;20036;-62
2022/06/04 06:34:45;;;;;;;5.57;3.85;;;15.60;87.80;;;;;;5065147;28;20048;-62
2022/06/04 06:37:10;;;;;;;7.68;4.10;;;15.70;87.30;;;;;;5067553;28;20484;-62
2022/06/04 06:39:36;;;;;;;7.03;3.47;;;16.00;86.40;;;;;;5071834;28;20041;-62
2022/06/04 06:42:01;;;;;;;6.57;3.65;;;16.10;85.80;;;;;;5069730;28;20086;-63
2022/06/04 06:44:28;;;;;;;5.50;3.80;;;16.20;85.10;;;;;;5070279;28;20080;-63
2022/06/04 06:46:54;;;;;;;6.90;3.92;;;16.30;84.50;;;;;;5072577;28;20055;-62
2022/06/04 06:49:24;;;;;;;6.35;4.03;;;16.40;83.40;;;;;;5065893;28;21083;-63
2022/06/04 06:51:54;;;;;;;5.97;3.70;;;16.60;82.10;;;;;;5069206;28;20064;-63
2022/06/04 06:54:20;;;;;;;;;;;16.80;82.20;;;;;;5072833;28;20040;-62
2022/06/04 06:56:48;;;;;;;6.05;3.53;;;16.90;75.60;;;;;;5073448;28;19956;-63
2022/06/04 06:59:15;;;;;;;5.97;3.80;;;17.10;82.60;;;;;;5084819;28;20488;-63
2022/06/04 07:01:42;;;;;;;7.97;3.65;;;17.30;80.60;;;;;;5075438;28;20045;-63
2022/06/04 07:04:09;;;;;;;6.28;3.40;;;17.60;79.50;;;;;;5070360;28;20420;-63
2022/06/04 07:06:39;;;;;;;5.63;3.30;;;17.70;78.60;;;;;;5083396;28;20044;-63
2022/06/04 07:09:06;;;;;;;;;;;18.00;77.70;;;;;;5082841;28;20078;-63
2022/06/04 07:11:32;;;;;;;7.57;4.20;;;18.20;71.90;;;;;;5085297;28;19924;-62
2022/06/04 07:13:58;;;;;;;5.85;3.53;;;18.30;78.10;;;;;;5091911;28;20063;-63
2022/06/04 07:16:23;;;;;;;6.78;4.18;;;18.50;76.40;;;;;;5065642;28;20035;-63
2022/06/04 07:18:49;;;;;;;4.78;3.67;;;18.70;73.70;;;;;;5071905;28;20122;-63
2022/06/04 07:21:15;;;;;;;7.85;4.15;;;18.80;73.00;;;;;;5072436;28;20041;-63
2022/06/04 07:23:41;;;;;;;5.65;3.85;;;18.90;72.30;;;;;;5053668;28;20086;-63
2022/06/04 07:26:07;;;;;;;6.55;4.13;;;19.10;71.20;;;;;;5072539;28;20499;-63
2022/06/04 07:28:33;;;;;;;8.15;4.10;;;19.20;70.10;;;;;;5068983;28;20040;-64
2022/06/04 07:30:59;;;;;;;4.95;3.67;;;19.10;69.60;;;;;;5073671;28;20041;-64
2022/06/04 07:33:28;;;;;;;6.35;3.90;;;19.40;68.20;;;;;;5075623;28;20770;-63
2022/06/04 07:35:54;;;;;;;4.75;3.55;;;19.60;68.10;;;;;;5072274;28;20051;-64
2022/06/04 07:38:19;;;;;;;5.13;3.40;;;19.70;67.90;;;;;;5077051;28;20789;-63
2022/06/04 07:40:46;;;;;;;6.43;3.78;;;19.70;66.80;;;;;;5076263;28;20036;-64
2022/06/04 07:43:12;;;;;;;6.43;3.65;;;20.00;65.90;;;;;;5072599;28;20059;-64
2022/06/04 07:45:39;;;;;;;5.85;3.67;;;20.20;63.70;;;;;;5073276;28;20035;-63
2022/06/04 07:48:06;;;;;;;4.80;3.45;;;20.20;64.90;;;;;;5065521;28;20028;-64
2022/06/04 07:50:32;;;;;;;5.72;3.70;;;20.40;64.30;;;;;;5072602;28;20044;-64
2022/06/04 07:53:00;;;;;;;6.50;4.28;;;20.70;63.60;;;;;;5070034;28;20075;-64
2022/06/04 07:55:26;;;;;;;3.97;3.13;;;20.70;63.10;;;;;;5066686;28;20064;-64
2022/06/04 07:57:51;;;;;;;4.32;3.17;;;20.80;62.70;;;;;;5074018;28;20060;-65
2022/06/04 08:00:19;;;;;;;5.07;3.42;;;21.00;62.50;;;;;;5075273;28;20123;-64
2022/06/04 08:02:45;;;;;;;4.85;3.90;;;21.20;62.00;;;;;;5075749;28;20048;-64
2022/06/04 08:05:12;;;;;;;6.57;4.10;;;21.60;60.50;;;;;;5067989;28;20040;-64
2022/06/04 08:07:37;;;;;;;5.30;4.10;;;21.80;59.50;;;;;;5079261;28;20081;-63
2022/06/04 08:10:05;;;;;;;5.13;4.00;;;21.90;58.50;;;;;;5089989;28;20044;-64
2022/06/04 08:12:32;;;;;;;5.28;3.95;;;21.60;58.50;;;;;;5078302;28;20064;-64
2022/06/04 08:14:58;;;;;;;4.10;3.70;;;21.60;58.60;;;;;;5074021;28;20485;-63
2022/06/04 08:17:23;;;;;;;5.45;3.88;;;21.70;58.30;;;;;;5091161;28;20072;-64
2022/06/04 08:19:49;;;;;;;6.05;3.70;;;21.80;57.10;;;;;;5086534;28;20036;-64
2022/06/04 08:22:15;;;;;;;5.00;3.95;;;21.70;57.10;;;;;;5068787;28;20044;-64
2022/06/04 08:24:40;;;;;;;5.03;4.35;;;21.80;56.40;;;;;;5072289;28;20044;-63
2022/06/04 08:27:07;;;;;;;5.43;3.70;;;21.90;55.40;;;;;;5080091;28;20071;-63
2022/06/04 08:29:34;;;;;;;4.20;3.80;;;22.10;55.40;;;;;;5068886;28;20055;-63
2022/06/04 08:32:02;;;;;;;4.07;3.38;;;22.40;54.20;;;;;;5072244;28;20036;-64
2022/06/04 08:34:28;;;;;;;4.35;3.17;;;22.90;53.70;;;;;;5083578;28;20036;-64
2022/06/04 08:36:54;;;;;;;4.85;3.42;;;23.40;53.20;;;;;;5081774;28;20032;-65
2022/06/04 08:39:20;;;;;;;5.47;3.67;;;23.90;52.10;;;;;;5064445;28;20476;-65
2022/06/04 08:42:01;;;;;;;5.40;3.40;;;24.10;50.70;;;;;;5070207;28;20044;-64
2022/06/04 08:44:51;;;;;;;4.70;3.60;;;24.20;49.50;;;;;;5072580;28;20404;-64
2022/06/04 08:47:32;;;;;;;8.27;3.78;;;24.70;48.90;;;;;;5080129;28;20532;-65
2022/06/04 08:50:09;;;;;;;5.15;3.90;;;25.00;49.90;;;;;;5072429;28;20036;-64
2022/06/04 08:52:43;;;;;;;5.68;3.90;;;25.30;48.20;;;;;;5074387;28;20381;-64
2022/06/04 08:58:58;;;;;;;3.58;3.00;;;25.90;44.70;;;;;;5077485;28;20101;-64
2022/06/04 09:01:31;;;;;;;16.77;3.45;;;25.90;43.80;;;;;;5077234;28;20548;-64
2022/06/04 09:04:21;;;;;;;9.25;3.70;;;26.10;45.00;;;;;;5072060;28;20465;-65
2022/06/04 09:07:10;;;;;;;14.50;4.00;;;26.50;44.30;;;;;;5073802;28;20036;-64
2022/06/04 09:09:45;;;;;;;4.50;3.25;;;26.50;43.10;;;;;;5057201;28;20044;-64
2022/06/04 09:12:27;;;;;;;5.13;3.42;;;26.90;43.30;;;;;;5085078;28;20598;-64
2022/06/04 09:14:57;;;;;;;4.18;3.15;;;27.00;42.80;;;;;;5072188;28;20054;-65
2022/06/04 09:17:45;;;;;;;3.53;3.22;;;27.30;42.80;;;;;;5074916;28;20040;-64
2022/06/04 09:20:29;;;;;;;4.97;3.30;;;27.50;39.20;;;;;;5078044;28;20072;-65
2022/06/04 09:23:02;;;;;;;5.00;3.50;;;28.10;41.60;;;;;;5082335;28;20085;-64
2022/06/04 09:25:42;;;;;;;4.97;3.70;;;27.90;39.90;;;;;;5080731;28;20040;-63
2022/06/04 09:28:28;;;;;;;3.55;3.25;;;27.90;38.80;;;;;;5072368;28;20039;-65
2022/06/04 09:31:16;;;;;;;4.65;3.17;;;28.30;38.70;;;;;;5089521;28;20044;-65
2022/06/04 09:33:52;;;;;;;3.95;3.55;;;28.50;39.40;;;;;;5082903;28;20044;-64
2022/06/04 09:36:22;;;;;;;4.82;3.03;;;28.80;38.60;;;;;;5073352;28;20044;-65
2022/06/04 09:39:04;;;;;;;4.80;3.45;;;29.20;38.50;;;;;;5078491;28;20040;-65
2022/06/04 09:41:32;;;;;;;3.58;2.83;;;29.30;38.20;;;;;;5078034;28;20088;-66
2022/06/04 09:44:05;;;;;;;4.38;3.33;;;29.90;37.10;;;;;;5092746;28;20094;-64
2022/06/04 09:46:31;;;;;;;3.95;3.42;;;30.10;37.20;;;;;;5093012;28;20052;-63
2022/06/04 09:48:59;;;;;;;4.20;3.10;;;30.10;35.80;;;;;;5080598;28;20119;-65
2022/06/04 09:51:27;;;;;;;3.55;2.90;;;30.00;35.50;;;;;;5076631;28;20036;-65
2022/06/04 09:54:05;;;;;;;3.83;2.47;;;30.40;35.50;;;;;;5072375;28;20051;-64
2022/06/04 09:56:30;;;;;;;4.68;2.72;;;31.10;35.30;;;;;;5073336;28;20036;-66
2022/06/04 09:59:28;;;;;;;3.88;2.65;;;31.50;34.80;;;;;;5077439;28;20491;-64
2022/06/04 10:02:23;;;;;;;3.53;2.70;;;31.30;33.20;;;;;;5072083;28;20135;-63
2022/06/04 10:05:06;;;;;;;2.88;2.60;;;31.10;33.70;;;;;;5067361;28;20045;-63
2022/06/04 10:07:37;;;;;;;4.63;2.78;;;31.10;33.70;;;;;;5071952;28;20032;-65
2022/06/04 10:10:23;;;;;;;3.50;2.90;;;31.10;33.00;;;;;;5076687;28;20039;-65
2022/06/04 10:15:37;;;;;;;4.78;2.90;;;31.80;32.80;;;;;;5089524;28;20403;-62
2022/06/04 10:18:32;;;;;;;3.58;2.53;;;32.20;32.30;;;;;;5093889;28;20051;-62
2022/06/04 10:21:16;;;;;;;3.72;2.30;;;32.90;31.70;;;;;;5075066;28;20100;-65
2022/06/04 10:23:48;;;;;;;4.22;2.38;;;32.80;31.60;;;;;;5071065;28;20024;-64
2022/06/04 10:26:31;;;;;;;3.72;2.15;;;33.10;30.10;;;;;;5071276;28;20086;-65
2022/06/04 10:28:57;;;;;;;3.45;2.40;;;33.30;30.50;;;;;;5072109;28;20037;-65
2022/06/04 10:31:29;;;;;;;3.65;2.90;;;33.50;30.60;;;;;;5071858;28;20427;-66
2022/06/04 10:34:00;;;;;;;5.15;3.03;;;33.60;30.50;;;;;;5079852;28;20093;-65
2022/06/04 10:36:38;;;;;;;3.38;2.80;;;34.10;30.00;;;;;;5084531;28;20064;-65
2022/06/04 10:39:19;;;;;;;4.13;2.70;;;34.00;28.40;;;;;;5082677;28;20040;-65
2022/06/04 10:41:57;;;;;;;6.70;2.65;;;34.20;28.70;;;;;;5073382;28;20420;-65
2022/06/04 10:44:28;;;;;;;3.75;2.45;;;34.40;29.70;;;;;;5073357;28;20148;-65
2022/06/04 10:47:24;;;;;;;3.03;2.50;;;34.20;28.70;;;;;;5078649;28;20050;-64
2022/06/04 10:50:08;;;;;;;3.95;2.47;;;33.40;29.00;;;;;;5088616;28;20085;-64
2022/06/04 10:53:00;;;;;;;3.35;2.60;;;33.10;29.30;;;;;;5085960;28;20052;-64
2022/06/04 10:55:48;;;;;;;3.15;2.30;;;33.00;28.50;;;;;;5083499;28;20032;-65
2022/06/04 10:58:28;;;;;;;3.15;2.50;;;32.50;29.90;;;;;;5072710;28;22504;-64
2022/06/04 11:01:06;;;;;;;3.92;2.50;;;31.70;30.00;;;;;;5078938;28;20051;-64
2022/06/04 11:03:34;;;;;;;5.93;2.95;;;30.80;31.50;;;;;;5073566;28;20511;-64
2022/06/04 11:06:14;;;;;;;3.47;2.58;;;29.60;33.10;;;;;;5074503;28;20451;-64
2022/06/04 11:08:44;;;;;;;;;;;28.60;34.00;;;;;;5072069;28;20068;-65
2022/06/04 11:11:20;;;;;;;3.90;2.80;;;27.80;35.70;;;;;;5072068;28;19920;-64
2022/06/04 11:13:49;;;;;;;4.32;3.47;;;27.50;36.70;;;;;;5073216;28;20036;-64
2022/06/04 11:16:34;;;;;;;3.75;3.05;;;26.30;37.20;;;;;;5071967;28;20044;-64
2022/06/04 11:19:13;;;;;;;3.42;2.90;;;26.10;39.50;;;;;;5081625;28;20047;-65
2022/06/04 11:21:48;;;;;;;4.07;2.92;;;26.00;40.70;;;;;;5082662;28;20044;-63
2022/06/04 11:24:24;;;;;;;5.78;3.10;;;25.80;40.80;;;;;;5072126;28;20051;-63
2022/06/04 11:26:56;;;;;;;4.05;2.50;;;25.70;40.60;;;;;;5071346;28;20059;-65
2022/06/04 11:29:23;;;;;;;4.90;2.80;;;25.50;41.60;;;;;;5087038;28;20384;-64
2022/06/04 11:32:09;;;;;;;5.30;2.35;;;25.30;42.10;;;;;;5072617;28;20071;-64
2022/06/04 11:35:03;;;;;;;4.47;3.30;;;25.20;42.10;;;;;;5074414;28;20369;-64
2022/06/04 11:38:03;;;;;;;4.22;3.05;;;25.30;42.70;;;;;;5087739;28;20040;-64
2022/06/04 11:40:38;;;;;;;;;;;25.10;42.60;;;;;;5076165;28;20056;-65
2022/06/04 11:43:23;;;;;;;4.50;2.50;;;25.10;43.60;;;;;;5075348;28;20457;-65
2022/06/04 11:46:13;;;;;;;3.40;2.70;;;25.00;43.60;;;;;;5072656;28;20040;-64
2022/06/04 11:48:52;;;;;;;3.40;2.53;;;24.80;42.80;;;;;;5077981;28;20040;-64
2022/06/04 11:51:37;;;;;;;5.53;2.67;;;24.80;43.00;;;;;;5072128;28;20063;-64
2022/06/04 11:54:35;;;;;;;4.13;2.63;;;24.80;42.90;;;;;;5076352;28;20047;-64
2022/06/04 11:57:31;;;;;;;4.85;2.67;;;25.10;43.10;;;;;;5033473;28;20056;-64
2022/06/04 12:00:18;;;;;;;4.40;2.50;;;25.10;43.00;;;;;;5073905;28;20041;-65
2022/06/04 12:03:02;;;;;;;3.58;2.55;;;25.30;42.90;;;;;;5072222;28;20037;-63
2022/06/04 12:05:45;;;;;;;4.10;2.20;;;25.40;42.30;;;;;;5079973;28;20047;-64
2022/06/04 12:08:15;;;;;;;3.38;2.40;;;25.90;41.30;;;;;;5080122;28;20047;-64
2022/06/04 12:10:55;;;;;;;2.47;2.28;;;26.80;40.60;;;;;;5085335;28;20036;-63
2022/06/04 12:13:44;;;;;;;4.18;2.50;;;27.90;39.10;;;;;;5085654;28;20448;-64
2022/06/04 12:16:14;;;;;;;2.40;2.15;;;28.90;37.70;;;;;;5088531;28;20040;-64
2022/06/04 12:18:51;;;;;;;;;;;29.60;36.20;;;;;;5072708;28;20040;-63
2022/06/04 12:24:20;;;;;;;4.43;2.75;;;31.00;33.20;;;;;;5075349;28;20165;-64
2022/06/04 12:26:48;;;;;;;3.03;2.03;;;31.90;33.40;;;;;;5077285;28;20035;-64
2022/06/04 12:29:31;;;;;;;3.85;2.70;;;32.00;32.90;;;;;;5088575;28;20400;-65
2022/06/04 12:32:25;;;;;;;3.25;2.42;;;32.90;32.60;;;;;;5083030;28;20047;-64
2022/06/04 12:35:03;;;;;;;5.32;2.60;;;31.90;31.00;;;;;;5074696;28;20058;-64
2022/06/04 12:37:32;;;;;;;3.92;2.65;;;31.60;32.80;;;;;;5092019;28;20051;-64
2022/06/04 12:40:13;;;;;;;3.22;2.13;;;32.40;32.70;;;;;;5091807;28;20379;-64
2022/06/04 12:42:39;;;;;;;6.10;2.20;;;33.70;31.40;;;;;;5074985;28;20108;-64
2022/06/04 12:45:26;;;;;;;5.20;2.75;;;34.70;30.60;;;;;;5074194;28;20120;-64
2022/06/04 12:47:57;;;;;;;4.05;2.88;;;35.40;29.50;;;;;;5071964;28;20143;-64
2022/06/04 12:50:28;;;;;;;3.53;2.60;;;36.00;28.80;;;;;;5068896;28;20128;-64
2022/06/04 12:53:22;;;;;;;3.40;2.45;;;36.20;28.60;;;;;;5086531;28;20059;-65
2022/06/04 12:55:55;;;;;;;3.65;2.40;;;36.70;28.30;;;;;;5074148;28;20040;-65
2022/06/04 12:58:21;;;;;;;2.83;2.58;;;36.90;28.10;;;;;;5074239;28;20046;-64
2022/06/04 13:00:55;;;;;;;5.93;2.80;;;37.20;27.70;;;;;;5084950;28;20032;-64
2022/06/04 13:03:31;;;;;;;3.30;2.25;;;37.60;27.50;;;;;;5079907;28;20044;-64
2022/06/04 13:06:04;;;;;;;4.03;2.72;;;38.00;27.20;;;;;;5082512;28;20043;-63
2022/06/04 13:08:36;;;;;;;5.93;2.53;;;37.00;26.10;;;;;;5074815;28;20043;-64
2022/06/04 13:11:34;;;;;;;3.58;2.63;;;36.70;27.10;;;;;;5086929;28;21346;-64
2022/06/04 13:14:23;;;;;;;3.50;2.50;;;36.50;27.20;;;;;;5073397;28;20044;-64
2022/06/04 13:16:58;;;;;;;3.87;2.10;;;36.90;27.70;;;;;;5073084;28;20054;-64
2022/06/04 13:19:41;;;;;;;3.72;2.40;;;37.10;27.30;;;;;;5072197;28;20041;-64
2022/06/04 13:22:28;;;;;;;2.92;2.30;;;36.80;27.20;;;;;;5072283;28;20040;-64
2022/06/04 13:24:57;;;;;;;3.60;2.40;;;35.70;27.20;;;;;;5082673;28;20480;-64
2022/06/04 13:27:53;;;;;;;2.87;2.53;;;35.70;27.80;;;;;;5071470;28;20036;-65
2022/06/04 13:30:25;;;;;;;3.35;2.22;;;35.50;26.70;;;;;;5069152;28;20385;-64